Time;durP1;ratioP1;P1;durP2;ratioP2;P2;SDS_P1;SDS_P2;PMS_P1;PMS_P2;Temp;Humidity;BMP_temperature;BMP_pressure;BME280_temperature;BME280_humidity;BME280_pressure;Samples;Min_cycle;Max_cycle;Signal;HPM_P1;HPM_P2
2022/12/17 13:10:04;;;;;;;17.27;15.43;;;;;;;;;;5117438;28;20084;-56
2022/12/17 13:13:06;;;;;;;;;;;;;;;;;;;;;
2022/12/17 13:18:45;;;;;;;16.45;13.52;;;;;;;;;;5100839;28;20032;-57
2022/12/17 13:21:40;;;;;;;18.87;15.47;;;;;;;;;;5097876;28;20468;-57
2022/12/17 13:24:28;;;;;;;33.60;18.60;;;;;;;;;;5115825;28;20042;-57
2022/12/17 13:27:13;;;;;;;17.67;15.83;;;;;;;;;;5115669;28;20401;-57
2022/12/17 13:29:50;;;;;;;23.83;18.70;;;;;;;;;;5116012;28;20134;-58
2022/12/17 13:32:50;;;;;;;20.87;18.63;;;;;;;;;;5094440;28;20074;-58
2022/12/17 13:35:46;;;;;;;29.42;18.52;;;;;;;;;;5116328;28;20457;-58
2022/12/17 13:38:40;;;;;;;27.23;23.87;;;;;;;;;;5097494;28;20484;-58
2022/12/17 13:44:34;;;;;;;20.47;16.47;;;;;;;;;;5114536;28;20040;-58
2022/12/17 13:47:32;;;;;;;21.27;14.57;;;;;;;;;;5079167;28;20046;-57
2022/12/17 13:50:35;;;;;;;23.87;18.67;;;;;;;;;;5096694;28;20131;-56
2022/12/17 14:03:42;;;;;;;34.97;27.10;;;;;;;;;;5132345;27;20443;-56
2022/12/17 14:06:09;;;;;;;29.97;19.60;;;;;;;;;;5131735;28;20521;-55
2022/12/17 14:08:36;;;;;;;27.53;21.97;;;;;;;;;;5131713;28;20024;-57
2022/12/17 14:13:47;;;;;;;27.00;21.87;;;;;;;;;;5131969;28;20098;-57
2022/12/17 14:16:17;;;;;;;29.03;20.17;;;;;;;;;;5131886;28;20025;-56
2022/12/17 14:18:46;;;;;;;23.10;20.43;;;;;;;;;;5131474;28;20020;-57
2022/12/17 14:21:12;;;;;;;30.53;18.27;;;;;;;;;;5131448;28;20031;-57
2022/12/17 14:23:39;;;;;;;25.47;17.87;;;;;;;;;;5132032;28;20034;-56
2022/12/17 14:26:08;;;;;;;22.27;16.97;;;;;;;;;;5131128;28;20027;-55
2022/12/17 14:28:35;;;;;;;32.57;21.50;;;;;;;;;;5131417;28;20051;-56
2022/12/17 14:31:15;;;;;;;17.43;15.70;;;;;;;;;;5131678;28;20088;-57
2022/12/17 14:33:42;;;;;;;28.93;16.87;;;;;;;;;;5131415;28;20425;-57
2022/12/17 14:36:08;;;;;;;22.03;19.93;;;;;;;;;;5131513;28;20028;-57
2022/12/17 14:38:34;;;;;;;22.50;16.83;;;;;;;;;;5131280;28;20048;-54
2022/12/17 14:41:01;;;;;;;17.13;14.77;;;;;;;;;;5131718;28;20190;-57
2022/12/17 14:43:28;;;;;;;22.27;18.80;;;;;;;;;;5131194;28;20027;-57
2022/12/17 14:49:02;;;;;;;18.67;14.03;;;;;;;;;;5131078;28;20165;-55
2022/12/17 14:51:28;;;;;;;18.23;14.60;;;;;;;;;;5131295;28;20044;-56
2022/12/17 14:54:13;;;;;;;24.00;18.13;;;;;;;;;;5131530;28;20530;-56
2022/12/17 14:56:40;;;;;;;24.17;18.23;;;;;;;;;;5130728;28;20080;-57
2022/12/17 14:59:22;;;;;;;21.60;18.90;;;;;;;;;;5130650;28;20030;-55
2022/12/17 15:01:48;;;;;;;26.63;18.00;;;;;;;;;;5131082;28;20096;-55
2022/12/17 15:04:15;;;;;;;24.73;18.20;;;;;;;;;;5119260;28;20024;-57
2022/12/17 15:06:41;;;;;;;24.30;18.17;;;;;;;;;;5116715;28;20038;-55
2022/12/17 15:09:09;;;;;;;20.37;14.20;;;;;;;;;;5117016;28;20024;-53
2022/12/17 15:11:35;;;;;;;17.20;14.90;;;;;;;;;;5116931;28;20038;-57
2022/12/17 15:14:01;;;;;;;19.73;16.90;;;;;;;;;;5117193;28;20062;-56
2022/12/17 15:16:27;;;;;;;18.83;16.97;;;;;;;;;;5116815;28;20020;-55
2022/12/17 15:18:53;;;;;;;32.70;14.00;;;;;;;;;;5116837;28;20103;-58
2022/12/17 15:21:19;;;;;;;17.90;12.77;;;;;;;;;;5116898;28;20027;-55
2022/12/17 15:23:46;;;;;;;20.03;14.03;;;;;;;;;;5116705;28;20080;-55
2022/12/17 15:26:14;;;;;;;16.53;13.80;;;;;;;;;;5116981;28;20473;-57
2022/12/17 15:28:40;;;;;;;16.37;13.23;;;;;;;;;;5117470;28;20034;-57
2022/12/17 15:31:05;;;;;;;19.63;17.60;;;;;;;;;;5117026;28;20054;-57
2022/12/17 15:33:31;;;;;;;21.93;19.83;;;;;;;;;;5116456;28;20449;-56
2022/12/17 15:35:58;;;;;;;15.43;13.93;;;;;;;;;;5116429;28;20028;-55
2022/12/17 15:38:24;;;;;;;13.73;12.43;;;;;;;;;;5116488;28;20052;-57
2022/12/17 15:40:50;;;;;;;24.83;14.23;;;;;;;;;;5116471;28;20440;-56
2022/12/17 15:43:16;;;;;;;20.10;18.03;;;;;;;;;;5116404;28;20031;-56
2022/12/17 15:45:43;;;;;;;14.37;11.97;;;;;;;;;;5116374;28;20176;-57
2022/12/17 15:48:10;;;;;;;23.70;19.03;;;;;;;;;;5116578;28;20368;-57
2022/12/17 15:50:36;;;;;;;15.57;12.80;;;;;;;;;;5116281;28;20132;-57
2022/12/17 15:53:02;;;;;;;15.77;14.13;;;;;;;;;;5115976;28;20046;-56
2022/12/17 15:55:29;;;;;;;19.07;16.03;;;;;;;;;;5116700;28;20019;-56
2022/12/17 15:57:55;;;;;;;21.13;13.87;;;;;;;;;;5116371;28;20024;-54
2022/12/17 16:00:21;;;;;;;23.90;16.83;;;;;;;;;;5115630;28;20020;-58
2022/12/17 16:02:47;;;;;;;17.33;15.63;;;;;;;;;;5116216;28;20075;-57
2022/12/17 16:05:14;;;;;;;22.10;17.90;;;;;;;;;;5115736;28;20059;-57
2022/12/17 16:07:42;;;;;;;17.70;14.30;;;;;;;;;;5115827;28;20095;-52
2022/12/17 16:10:08;;;;;;;21.97;16.33;;;;;;;;;;5115492;28;20464;-56
2022/12/17 16:12:34;;;;;;;20.00;14.73;;;;;;;;;;5115730;28;20084;-53
2022/12/17 16:15:00;;;;;;;13.50;12.17;;;;;;;;;;5115300;28;20031;-55
2022/12/17 16:17:26;;;;;;;17.90;12.53;;;;;;;;;;5115716;28;20102;-54
2022/12/17 16:19:52;;;;;;;19.97;17.87;;;;;;;;;;5115927;28;20031;-54
2022/12/17 16:22:18;;;;;;;17.40;15.07;;;;;;;;;;5115608;28;20039;-55
2022/12/17 16:24:44;;;;;;;27.40;15.57;;;;;;;;;;5115839;28;20062;-56
2022/12/17 16:27:10;;;;;;;17.60;14.70;;;;;;;;;;5115412;28;20020;-56
2022/12/17 16:29:36;;;;;;;14.13;12.70;;;;;;;;;;5115343;28;20034;-55
2022/12/17 16:32:02;;;;;;;13.13;11.93;;;;;;;;;;5115238;28;20019;-55
2022/12/17 16:34:28;;;;;;;18.17;12.93;;;;;;;;;;5115207;28;20032;-57
2022/12/17 16:36:54;;;;;;;18.63;12.07;;;;;;;;;;5115866;28;20051;-52
2022/12/17 16:39:20;;;;;;;14.43;12.57;;;;;;;;;;5115146;28;20032;-54
2022/12/17 16:41:46;;;;;;;17.53;16.07;;;;;;;;;;5114748;28;20520;-57
2022/12/17 16:44:12;;;;;;;20.83;12.80;;;;;;;;;;5115454;28;20095;-57
2022/12/17 16:46:39;;;;;;;15.97;12.10;;;;;;;;;;5115008;28;20102;-54
2022/12/17 16:49:24;;;;;;;18.00;13.93;;;;;;;;;;5114935;28;20028;-56
2022/12/17 16:51:51;;;;;;;16.93;14.40;;;;;;;;;;5115032;28;20240;-56
2022/12/17 16:54:18;;;;;;;15.20;12.00;;;;;;;;;;5115119;28;20024;-58
2022/12/17 16:56:45;;;;;;;26.07;12.90;;;;;;;;;;5097279;28;20430;-56
2022/12/17 16:59:11;;;;;;;13.77;11.97;;;;;;;;;;5114738;28;20107;-57
2022/12/17 17:01:38;;;;;;;12.93;11.73;;;;;;;;;;5115019;28;20518;-57
2022/12/17 17:04:05;;;;;;;15.63;10.70;;;;;;;;;;5096131;28;20032;-57
2022/12/17 17:06:31;;;;;;;22.03;16.00;;;;;;;;;;5115409;28;20034;-57
2022/12/17 17:08:57;;;;;;;15.57;14.03;;;;;;;;;;5114479;28;20365;-57
2022/12/17 17:11:24;;;;;;;13.07;11.90;;;;;;;;;;5115171;28;20028;-56
2022/12/17 17:13:53;;;;;;;18.67;12.83;;;;;;;;;;5114649;28;20199;-55
2022/12/17 17:16:22;;;;;;;13.18;11.85;;;;;;;;;;5114962;28;20028;-57
2022/12/17 17:18:48;;;;;;;15.67;10.97;;;;;;;;;;5114577;28;20030;-56
2022/12/17 17:21:16;;;;;;;20.30;12.83;;;;;;;;;;5114469;28;20020;-57
2022/12/17 17:23:42;;;;;;;24.77;15.87;;;;;;;;;;5114520;28;20020;-52
2022/12/17 17:26:09;;;;;;;11.83;10.53;;;;;;;;;;5114858;28;20119;-54
2022/12/17 17:28:35;;;;;;;21.83;10.27;;;;;;;;;;5114378;28;20020;-54
2022/12/17 17:31:01;;;;;;;15.87;11.57;;;;;;;;;;5114334;28;20023;-57
2022/12/17 17:33:31;;;;;;;14.27;11.33;;;;;;;;;;5114171;28;20472;-56
2022/12/17 17:36:23;;;;;;;14.90;8.98;;;;;;;;;;5114348;28;20027;-53
2022/12/17 17:38:50;;;;;;;13.60;12.30;;;;;;;;;;5109333;28;20494;-57
2022/12/17 17:41:18;;;;;;;15.67;13.73;;;;;;;;;;5114214;28;20106;-51
2022/12/17 17:43:44;;;;;;;23.33;15.30;;;;;;;;;;5114130;28;20445;-55
2022/12/17 17:46:19;;;;;;;18.27;12.37;;;;;;;;;;5114535;28;20028;-55
2022/12/17 17:48:46;;;;;;;28.47;14.73;;;;;;;;;;5114970;28;20016;-55
2022/12/17 17:51:13;;;;;;;18.73;16.50;;;;;;;;;;5114188;28;20038;-53
2022/12/17 17:53:40;;;;;;;32.13;15.33;;;;;;;;;;5114042;28;20063;-54
2022/12/17 17:56:16;;;;;;;16.90;15.27;;;;;;;;;;5113996;28;20020;-51
2022/12/17 17:58:50;;;;;;;20.13;15.13;;;;;;;;;;5114672;28;20052;-51
2022/12/17 18:01:18;;;;;;;18.93;13.73;;;;;;;;;;5113706;28;20039;-57
2022/12/17 18:03:44;;;;;;;20.87;12.23;;;;;;;;;;5114324;28;20077;-55
2022/12/17 18:06:14;;;;;;;22.40;14.53;;;;;;;;;;5113899;28;20110;-56
2022/12/17 18:08:41;;;;;;;36.67;15.30;;;;;;;;;;5114254;28;20046;-57
2022/12/17 18:11:08;;;;;;;19.57;16.80;;;;;;;;;;5113851;28;20149;-53
2022/12/17 18:16:19;;;;;;;21.10;13.70;;;;;;;;;;5113968;28;20389;-54
2022/12/17 18:18:45;;;;;;;17.43;14.37;;;;;;;;;;5113511;28;20031;-56
2022/12/17 18:21:13;;;;;;;18.63;16.90;;;;;;;;;;5113698;28;20448;-55
2022/12/17 18:23:39;;;;;;;29.13;18.27;;;;;;;;;;5114516;28;20023;-57
2022/12/17 18:26:16;;;;;;;18.13;15.70;;;;;;;;;;5113855;28;20028;-54
2022/12/17 18:28:42;;;;;;;21.60;13.93;;;;;;;;;;5114037;28;20368;-54
2022/12/17 18:31:09;;;;;;;34.97;16.07;;;;;;;;;;5113381;28;20028;-55
2022/12/17 18:33:36;;;;;;;18.73;15.30;;;;;;;;;;5114080;28;20407;-56
2022/12/17 18:36:02;;;;;;;22.20;15.27;;;;;;;;;;5113996;28;20371;-54
2022/12/17 18:38:28;;;;;;;19.30;16.30;;;;;;;;;;5115121;28;20089;-55
2022/12/17 18:40:54;;;;;;;27.07;16.43;;;;;;;;;;5117581;28;20028;-51
2022/12/17 18:43:23;;;;;;;20.13;17.97;;;;;;;;;;5117518;28;20472;-57
2022/12/17 18:45:50;;;;;;;19.07;17.13;;;;;;;;;;5117727;28;20080;-54
2022/12/17 18:48:16;;;;;;;16.73;10.20;;;;;;;;;;5117221;28;20152;-51
2022/12/17 18:50:42;;;;;;;19.73;16.33;;;;;;;;;;5117633;28;20021;-54
2022/12/17 18:53:08;;;;;;;16.83;12.03;;;;;;;;;;5117152;28;20085;-53
2022/12/17 18:55:39;;;;;;;18.40;15.70;;;;;;;;;;5118093;28;20055;-55
2022/12/17 18:58:05;;;;;;;15.33;13.77;;;;;;;;;;5117765;28;20036;-53
2022/12/17 19:00:31;;;;;;;21.30;14.30;;;;;;;;;;5117492;28;20039;-57
2022/12/17 19:02:57;;;;;;;16.67;11.97;;;;;;;;;;5116918;28;20401;-56
2022/12/17 19:05:23;;;;;;;19.17;16.47;;;;;;;;;;5117795;28;20459;-57
2022/12/17 19:07:48;;;;;;;16.57;12.07;;;;;;;;;;5117480;28;20020;-57
2022/12/17 19:10:14;;;;;;;15.37;11.10;;;;;;;;;;5116722;28;20099;-52
2022/12/17 19:12:40;;;;;;;24.47;15.47;;;;;;;;;;5116833;28;20077;-55
2022/12/17 19:15:07;;;;;;;23.27;12.27;;;;;;;;;;5116909;28;20070;-55
2022/12/17 19:17:32;;;;;;;15.60;13.20;;;;;;;;;;5116740;28;20024;-50
2022/12/17 19:19:58;;;;;;;17.73;15.90;;;;;;;;;;5116399;28;20081;-54
2022/12/17 19:22:24;;;;;;;17.73;13.07;;;;;;;;;;5116717;28;20028;-56
2022/12/17 19:24:50;;;;;;;23.90;15.37;;;;;;;;;;5117261;28;20053;-54
2022/12/17 19:27:16;;;;;;;26.20;15.57;;;;;;;;;;5117144;28;20034;-52
2022/12/17 19:29:42;;;;;;;19.27;16.80;;;;;;;;;;5117085;28;20111;-56
2022/12/17 19:32:08;;;;;;;16.33;12.67;;;;;;;;;;5116594;28;20448;-54
2022/12/17 19:34:34;;;;;;;16.40;12.57;;;;;;;;;;5116511;28;20422;-57
2022/12/17 19:37:00;;;;;;;20.07;15.97;;;;;;;;;;5116756;28;20377;-52
2022/12/17 19:39:26;;;;;;;14.60;13.13;;;;;;;;;;5116403;28;20053;-56
2022/12/17 19:41:52;;;;;;;21.03;13.67;;;;;;;;;;5116270;28;20495;-54
2022/12/17 19:44:21;;;;;;;20.37;17.47;;;;;;;;;;5116599;28;20047;-56
2022/12/17 19:46:47;;;;;;;20.10;12.60;;;;;;;;;;5116201;28;20019;-53
2022/12/17 19:49:23;;;;;;;17.53;14.37;;;;;;;;;;5115742;28;20384;-54
2022/12/17 19:51:49;;;;;;;16.83;12.20;;;;;;;;;;5115767;28;20059;-56
2022/12/17 19:54:15;;;;;;;37.83;14.70;;;;;;;;;;5116738;28;20028;-52
2022/12/17 19:56:42;;;;;;;27.90;17.87;;;;;;;;;;5116113;28;20024;-56
2022/12/17 19:59:10;;;;;;;19.27;14.77;;;;;;;;;;5116039;28;20024;-52
2022/12/17 20:01:37;;;;;;;17.47;15.67;;;;;;;;;;5115679;28;20052;-51
2022/12/17 20:04:03;;;;;;;25.60;14.13;;;;;;;;;;5116402;28;20078;-52
2022/12/17 20:06:30;;;;;;;20.17;13.43;;;;;;;;;;5115536;28;20088;-55
2022/12/17 20:08:59;;;;;;;16.57;12.90;;;;;;;;;;5116270;28;20421;-53
2022/12/17 20:11:32;;;;;;;26.97;15.00;;;;;;;;;;5115781;28;20032;-57
2022/12/17 20:13:59;;;;;;;17.53;14.23;;;;;;;;;;5115802;28;20032;-56
2022/12/17 20:16:26;;;;;;;20.40;18.23;;;;;;;;;;5115700;28;20024;-55
2022/12/17 20:18:52;;;;;;;17.53;14.97;;;;;;;;;;5116028;28;20032;-54
2022/12/17 20:21:18;;;;;;;18.20;13.80;;;;;;;;;;5115594;28;20051;-53
2022/12/17 20:23:48;;;;;;;16.57;12.97;;;;;;;;;;5115588;28;20023;-54
2022/12/17 20:26:14;;;;;;;21.73;18.57;;;;;;;;;;5115965;28;20023;-52
2022/12/17 20:28:40;;;;;;;17.87;12.40;;;;;;;;;;5115399;28;20031;-53
2022/12/17 20:31:06;;;;;;;27.57;15.77;;;;;;;;;;5115273;28;20030;-54
2022/12/17 20:33:32;;;;;;;22.07;13.40;;;;;;;;;;5115322;28;20106;-57
2022/12/17 20:36:05;;;;;;;17.23;12.67;;;;;;;;;;5116131;28;20061;-55
2022/12/17 20:38:31;;;;;;;18.67;13.60;;;;;;;;;;5115171;28;20035;-57
2022/12/17 20:40:57;;;;;;;12.83;11.70;;;;;;;;;;5115176;28;20028;-55
2022/12/17 20:43:23;;;;;;;14.97;13.23;;;;;;;;;;5115654;28;20069;-55
2022/12/17 20:45:50;;;;;;;25.67;13.13;;;;;;;;;;5115333;28;20015;-57
2022/12/17 20:48:16;;;;;;;22.70;16.27;;;;;;;;;;5114711;28;20037;-57
2022/12/17 20:50:42;;;;;;;14.80;12.13;;;;;;;;;;5115184;28;20506;-57
2022/12/17 20:53:08;;;;;;;20.57;15.80;;;;;;;;;;5114822;28;20031;-54
2022/12/17 20:55:34;;;;;;;14.90;13.30;;;;;;;;;;5115207;28;20024;-57
2022/12/17 20:58:00;;;;;;;17.93;16.20;;;;;;;;;;5115381;28;20024;-56
2022/12/17 21:00:26;;;;;;;17.33;15.80;;;;;;;;;;5114674;28;20032;-56
2022/12/17 21:02:52;;;;;;;16.97;14.47;;;;;;;;;;5114505;28;20138;-56
2022/12/17 21:05:18;;;;;;;20.37;16.03;;;;;;;;;;5115299;28;20062;-55
2022/12/17 21:07:44;;;;;;;25.03;12.47;;;;;;;;;;5114912;28;20020;-53
2022/12/17 21:10:11;;;;;;;13.53;11.87;;;;;;;;;;5114222;28;20096;-57
2022/12/17 21:15:22;;;;;;;17.40;14.30;;;;;;;;;;5114949;28;20125;-55
2022/12/17 21:17:48;;;;;;;22.57;14.43;;;;;;;;;;5114554;28;20020;-55
2022/12/17 21:20:14;;;;;;;26.23;15.13;;;;;;;;;;5114697;28;20026;-56
2022/12/17 21:22:40;;;;;;;15.53;14.10;;;;;;;;;;5114625;28;20031;-54
2022/12/17 21:25:07;;;;;;;16.50;14.37;;;;;;;;;;5115047;28;20059;-56
2022/12/17 21:27:33;;;;;;;21.97;14.43;;;;;;;;;;5114460;28;20024;-54
2022/12/17 21:29:59;;;;;;;15.17;10.97;;;;;;;;;;5114441;28;20076;-55
2022/12/17 21:32:25;;;;;;;18.77;11.10;;;;;;;;;;5114394;28;20027;-54
2022/12/17 21:34:51;;;;;;;17.07;15.47;;;;;;;;;;5114325;28;20019;-51
2022/12/17 21:37:17;;;;;;;15.03;9.67;;;;;;;;;;5114579;28;20034;-55
2022/12/17 21:39:43;;;;;;;13.17;11.77;;;;;;;;;;5113852;28;20483;-56
2022/12/17 21:44:53;;;;;;;14.70;13.37;;;;;;;;;;5114368;28;20030;-52
2022/12/17 21:47:19;;;;;;;13.60;12.13;;;;;;;;;;5114786;28;20024;-52
2022/12/17 21:49:45;;;;;;;19.63;17.27;;;;;;;;;;5114376;28;20066;-55
2022/12/17 21:52:11;;;;;;;13.33;11.93;;;;;;;;;;5113878;28;20039;-56
2022/12/17 21:54:37;;;;;;;17.67;14.20;;;;;;;;;;5114492;28;20027;-57
2022/12/17 21:57:03;;;;;;;13.77;11.50;;;;;;;;;;5114592;28;20027;-54
2022/12/17 21:59:29;;;;;;;19.07;10.50;;;;;;;;;;5114134;28;20034;-57
2022/12/17 22:01:58;;;;;;;21.37;12.80;;;;;;;;;;5113937;28;20048;-55
2022/12/17 22:04:24;;;;;;;14.43;10.50;;;;;;;;;;5113977;28;20023;-56
2022/12/17 22:06:51;;;;;;;15.23;9.30;;;;;;;;;;5114614;28;20027;-55
2022/12/17 22:09:16;;;;;;;15.23;13.23;;;;;;;;;;5113665;28;20074;-51
2022/12/17 22:11:42;;;;;;;14.57;11.63;;;;;;;;;;5113610;28;20463;-56
2022/12/17 22:14:10;;;;;;;13.93;12.53;;;;;;;;;;5115935;28;20027;-55
2022/12/17 22:16:39;;;;;;;19.23;13.70;;;;;;;;;;5117947;28;20020;-55
2022/12/17 22:19:04;;;;;;;12.67;8.50;;;;;;;;;;5117813;28;20024;-55
2022/12/17 22:21:34;;;;;;;14.33;12.10;;;;;;;;;;5118389;28;20027;-55
2022/12/17 22:24:00;;;;;;;16.97;13.73;;;;;;;;;;5118415;28;20027;-57
2022/12/17 22:26:26;;;;;;;10.60;6.73;;;;;;;;;;5117863;28;20103;-55
2022/12/17 22:28:52;;;;;;;12.60;11.40;;;;;;;;;;5118056;28;20031;-55
2022/12/17 22:34:05;;;;;;;23.60;13.13;;;;;;;;;;5117913;28;20151;-56
2022/12/17 22:36:31;;;;;;;24.10;12.23;;;;;;;;;;5117632;28;20385;-56
2022/12/17 22:39:05;;;;;;;14.53;12.97;;;;;;;;;;5118098;28;20402;-53
2022/12/17 22:44:16;;;;;;;12.80;11.63;;;;;;;;;;5117617;28;20030;-57
2022/12/17 22:46:42;;;;;;;12.73;9.80;;;;;;;;;;5117691;28;20020;-55
2022/12/17 22:49:08;;;;;;;19.27;11.80;;;;;;;;;;5117926;28;20066;-57
2022/12/17 22:51:34;;;;;;;12.17;11.20;;;;;;;;;;5117167;28;20028;-56
2022/12/17 22:54:01;;;;;;;20.10;12.13;;;;;;;;;;5117682;28;20030;-57
2022/12/17 22:56:27;;;;;;;11.97;9.70;;;;;;;;;;5117248;28;20118;-55
2022/12/17 22:58:53;;;;;;;19.77;15.10;;;;;;;;;;5117270;28;20116;-54
2022/12/17 23:01:18;;;;;;;13.33;12.10;;;;;;;;;;5116608;28;20035;-54
2022/12/17 23:03:44;;;;;;;23.23;11.33;;;;;;;;;;5117140;28;20024;-55
2022/12/17 23:06:12;;;;;;;18.77;11.30;;;;;;;;;;5098878;28;20065;-56
2022/12/17 23:08:38;;;;;;;12.07;10.83;;;;;;;;;;5116962;28;20024;-53
2022/12/17 23:11:08;;;;;;;18.63;11.30;;;;;;;;;;5116985;28;20024;-55
2022/12/17 23:13:34;;;;;;;20.17;12.27;;;;;;;;;;5116938;28;20035;-55
2022/12/17 23:16:00;;;;;;;12.43;11.20;;;;;;;;;;5117240;28;20038;-54
2022/12/17 23:18:26;;;;;;;15.10;13.50;;;;;;;;;;5117598;28;20059;-56
2022/12/17 23:20:52;;;;;;;13.67;12.30;;;;;;;;;;5116832;28;20032;-56
2022/12/17 23:23:18;;;;;;;18.03;11.40;;;;;;;;;;5117058;28;20361;-54
2022/12/17 23:25:44;;;;;;;12.50;11.53;;;;;;;;;;5116585;28;20470;-56
2022/12/17 23:28:10;;;;;;;15.97;14.20;;;;;;;;;;5116686;28;20027;-54
2022/12/17 23:30:36;;;;;;;16.30;10.70;;;;;;;;;;5116354;28;20076;-56
2022/12/17 23:33:02;;;;;;;16.23;11.93;;;;;;;;;;5116268;28;20034;-56
2022/12/17 23:35:28;;;;;;;15.10;10.80;;;;;;;;;;5116280;28;20085;-53
2022/12/17 23:37:54;;;;;;;18.00;10.60;;;;;;;;;;5116153;28;20023;-55
2022/12/17 23:40:21;;;;;;;13.53;12.27;;;;;;;;;;5116531;28;20032;-55
2022/12/17 23:42:47;;;;;;;12.87;11.07;;;;;;;;;;5116373;28;20028;-56
2022/12/17 23:45:13;;;;;;;12.27;11.13;;;;;;;;;;5116101;28;20020;-53
2022/12/17 23:47:39;;;;;;;15.53;11.80;;;;;;;;;;5116327;28;20106;-56
2022/12/17 23:50:07;;;;;;;20.43;14.07;;;;;;;;;;5117019;28;20019;-54
2022/12/17 23:52:32;;;;;;;16.23;14.13;;;;;;;;;;5116085;28;20480;-53
2022/12/17 23:54:58;;;;;;;11.20;10.17;;;;;;;;;;5116945;28;20019;-56
2022/12/17 23:57:24;;;;;;;19.80;12.30;;;;;;;;;;5116136;28;20059;-55
2022/12/17 23:59:50;;;;;;;24.20;13.87;;;;;;;;;;5116521;28;20368;-56
